Estación Meteorológica Peña el Pijo (Robertgarden) [ 07/20/18 16:46:18 CEST ]

Fecha Hora Presion(HPa) Temp (°C) Humedad % Rocio (°C) Viento ( m/s) Direccion Lluvia 1Hora(mm) Lluvia 24H(mm) LLuvia Total(mm)
2018-Mar-22 01:01:45 1010.100 -0.6 57 -8.1         176.12
2018-Mar-22 02:01:44 1009.800 -1.4 60 -8.2         176.12
2018-Mar-22 03:01:46 1009.600 -2.6 64 -8.5         176.12
2018-Mar-22 04:01:46 1009.100 -3.2 67 -8.5         176.12
2018-Mar-22 05:04:14 1008.700 -3.1 70 -7.8         176.12
2018-Mar-22 06:01:59 1008.700 -3.7 71 -8.2         176.12
2018-Mar-22 07:01:46 1008.700 -3.7 72 -8.1         176.12
2018-Mar-22 08:01:49 1009.000 -3.7 72 -8.1         176.12
2018-Mar-22 09:01:51 1009.400 0.9 60 -6.0         176.12
2018-Mar-22 10:01:41 1009.500 3.3 51 -5.9         176.12
2018-Mar-22 11:01:56 1009.600 7.2 41 -5.2 1.5 NE     176.12
2018-Mar-22 12:01:49 1009.400 8.5 37 -5.5         176.12
2018-Mar-22 13:01:49 1009.000 8.9 35 -5.8         176.12
2018-Mar-22 14:01:49 1008.800 9.7 32 -6.3 1.8 NNW     176.12
2018-Mar-22 15:01:44 1008.500 10.5 30 -6.3 1.9 SSW     176.12
2018-Mar-22 16:01:57 1008.000 11.3 29 -6.2         176.12
2018-Mar-22 17:01:57 1008.100 10.0 34 -5.3         176.12
2018-Mar-22 18:01:57 1008.200 8.9 36 -5.5         176.12
2018-Mar-22 19:02:01 1008.300 6.4 39 -6.6         176.12
2018-Mar-22 20:01:50 1008.100 4.1 47 -6.3         176.12
2018-Mar-22 21:01:58 1007.800 4.3 51 -5.0         176.12
2018-Mar-22 22:01:47 1007.700 4.1 55 -4.2         176.12
2018-Mar-22 23:01:47 1007.600 3.8 59 -3.5         176.12

Temperatura Máxima:11°    Temperatura Mínima:-3°
Presión Máxima:1010.100 Hpa    Presión Mínima:1007.600 Hpa


Volver